Time;durP1;ratioP1;P1;durP2;ratioP2;P2;SDS_P1;SDS_P2;PMS_P1;PMS_P2;Temp;Humidity;BMP_temperature;BMP_pressure;BME280_temperature;BME280_humidity;BME280_pressure;Samples;Min_cycle;Max_cycle;Signal;HPM_P1;HPM_P2
2022/12/17 13:08:02;;;;;;;;;;;;;;;13.92;27.57;101251.03;5053937;28;20032;-89
2022/12/17 13:10:34;;;;;;;7.60;4.55;;;;;;;13.89;27.42;101246.03;5062663;28;20473;-89
2022/12/17 13:13:14;;;;;;;8.55;4.10;;;;;;;13.79;27.53;101224.00;5031194;28;20028;-89
2022/12/17 13:15:46;;;;;;;6.00;3.78;;;;;;;13.91;27.61;101235.91;5049512;28;20020;-89
2022/12/17 13:18:38;;;;;;;8.27;4.25;;;;;;;13.94;27.48;101248.16;5051370;28;20115;-89
2022/12/17 13:21:22;;;;;;;6.25;3.80;;;;;;;13.89;27.36;101240.66;5044730;28;20130;-89
2022/12/17 13:23:48;;;;;;;6.72;4.20;;;;;;;13.80;27.31;101237.25;5034389;28;20033;-89
2022/12/17 13:26:14;;;;;;;7.07;4.38;;;;;;;13.93;27.19;101238.44;5021458;28;20091;-89
2022/12/17 13:28:48;;;;;;;7.68;4.10;;;;;;;13.89;27.60;101235.28;5046886;28;20144;-90
2022/12/17 13:31:21;;;;;;;6.45;4.10;;;;;;;13.90;27.62;101245.00;5010415;28;20292;-89
2022/12/17 13:34:02;;;;;;;5.85;3.92;;;;;;;13.87;27.40;101238.16;5039236;28;20052;-89
2022/12/17 13:36:38;;;;;;;6.95;4.30;;;;;;;13.92;27.54;101250.19;5037537;28;20039;-89
2022/12/17 13:39:12;;;;;;;6.97;4.30;;;;;;;13.93;27.67;101247.31;5029333;28;20570;-89
2022/12/17 13:41:38;;;;;;;6.53;4.20;;;;;;;13.88;27.39;101249.72;5062505;28;20055;-89
2022/12/17 13:44:20;;;;;;;6.85;4.22;;;;;;;13.86;27.52;101246.41;5034447;28;20513;-89
2022/12/17 13:46:47;;;;;;;6.40;4.20;;;;;;;13.87;27.70;101242.72;5015192;28;20037;-89
2022/12/17 13:49:20;;;;;;;6.00;4.03;;;;;;;13.92;27.54;101251.03;5016674;28;20020;-89
2022/12/17 13:51:46;;;;;;;6.93;4.15;;;;;;;13.89;27.58;101249.53;5016837;28;20035;-89
2022/12/17 13:54:17;;;;;;;7.72;4.60;;;;;;;13.86;27.99;101252.59;5024445;28;20024;-89
2022/12/17 13:56:42;;;;;;;7.80;4.57;;;;;;;13.87;27.62;101248.09;5020653;28;20396;-89
2022/12/17 13:59:34;;;;;;;6.75;4.00;;;;;;;13.92;27.56;101245.66;5020489;28;20033;-90
2022/12/17 14:02:03;;;;;;;6.65;4.30;;;;;;;13.90;27.46;101242.31;5031537;28;20043;-89
2022/12/17 14:04:29;;;;;;;6.63;4.25;;;;;;;13.85;27.54;101245.59;5013869;28;20505;-89
2022/12/17 14:06:57;;;;;;;8.43;4.10;;;;;;;13.82;27.78;101245.13;5039225;28;20112;-89
2022/12/17 14:09:26;;;;;;;7.00;4.25;;;;;;;13.88;27.78;101260.47;5036865;28;20036;-89
2022/12/17 14:14:40;;;;;;;7.20;3.90;;;;;;;13.85;27.81;101253.63;5039274;28;20040;-89
2022/12/17 14:17:06;;;;;;;7.28;3.65;;;;;;;13.81;27.85;101243.44;5022247;28;20274;-89
2022/12/17 14:19:31;;;;;;;6.57;3.70;;;;;;;13.84;27.64;101248.44;5034324;28;20024;-89
2022/12/17 14:21:57;;;;;;;7.07;4.10;;;;;;;13.88;27.52;101247.91;5013555;28;20025;-90
2022/12/17 14:24:25;;;;;;;6.70;4.00;;;;;;;13.86;27.65;101246.41;5012998;28;20442;-89
2022/12/17 14:26:53;;;;;;;7.32;4.43;;;;;;;13.82;27.73;101245.13;5046678;28;20017;-89
2022/12/17 14:29:23;;;;;;;9.45;4.60;;;;;;;13.83;27.46;101238.72;5015934;28;20028;-89
2022/12/17 14:31:57;;;;;;;6.70;4.07;;;;;;;13.86;28.05;101241.84;5032692;28;20041;-89
2022/12/17 14:34:22;;;;;;;7.87;4.67;;;;;;;13.84;28.04;101241.22;5015668;28;20048;-90
2022/12/17 14:37:01;;;;;;;7.85;3.90;;;;;;;13.83;27.68;101238.72;5022419;28;20393;-89
2022/12/17 14:39:30;;;;;;;7.05;4.13;;;;;;;13.81;27.89;101236.22;5036682;28;20036;-90
2022/12/17 14:42:25;;;;;;;8.65;5.00;;;;;;;13.82;28.05;101235.19;5015748;28;20033;-89
2022/12/17 14:44:58;;;;;;;6.35;4.15;;;;;;;13.84;27.93;101232.34;5022853;28;20425;-89
2022/12/17 14:47:31;;;;;;;6.65;3.97;;;;;;;13.83;27.91;101236.03;5057698;28;20025;-89
2022/12/17 14:50:25;;;;;;;8.03;4.50;;;;;;;13.83;27.78;101239.56;5015621;28;20570;-89
2022/12/17 14:52:55;;;;;;;8.07;4.88;;;;;;;13.84;27.39;101243.06;5022689;28;20032;-89
2022/12/17 14:55:32;;;;;;;6.47;3.83;;;;;;;13.88;27.84;101242.53;5015505;28;20497;-89
2022/12/17 14:58:10;;;;;;;7.10;4.53;;;;;;;13.85;27.84;101234.00;5061497;28;20459;-89
2022/12/17 15:00:38;;;;;;;7.72;4.40;;;;;;;13.76;27.88;101235.94;5061123;28;20032;-89
2022/12/17 15:03:03;;;;;;;6.03;3.92;;;;;;;13.78;27.86;101233.06;5036677;28;20029;-90
2022/12/17 15:05:29;;;;;;;7.70;3.97;;;;;;;13.83;27.96;101233.34;5024600;28;20488;-89
2022/12/17 15:07:54;;;;;;;6.38;4.00;;;;;;;13.83;28.22;101236.03;5053098;28;20033;-89
2022/12/17 15:10:20;;;;;;;6.13;4.13;;;;;;;13.82;28.05;101231.69;5037932;28;20546;-89
2022/12/17 15:12:47;;;;;;;6.03;3.85;;;;;;;13.77;28.15;101234.94;5022252;28;20035;-90
2022/12/17 15:15:13;;;;;;;8.27;4.43;;;;;;;13.78;27.80;101225.88;5020336;28;20179;-89
2022/12/17 15:17:39;;;;;;;7.88;4.63;;;;;;;13.84;28.13;101226.97;5036544;28;20161;-90
2022/12/17 15:20:05;;;;;;;5.88;3.92;;;;;;;13.80;28.29;101221.13;5013656;28;20533;-89
2022/12/17 15:22:31;;;;;;;7.95;4.32;;;;;;;13.75;28.02;101214.66;5040062;28;20023;-89
2022/12/17 15:24:56;;;;;;;9.38;4.50;;;;;;;13.80;27.55;101220.31;5033323;28;20111;-90
2022/12/17 15:27:22;;;;;;;8.32;4.60;;;;;;;13.81;28.12;101216.59;5042220;28;20120;-89
2022/12/17 15:29:48;;;;;;;6.45;3.83;;;;;;;13.83;27.98;101220.75;5042025;28;20020;-89
2022/12/17 15:32:18;;;;;;;6.00;3.83;;;;;;;13.80;28.09;101217.63;5041518;28;20070;-89
2022/12/17 15:34:43;;;;;;;7.13;4.55;;;;;;;13.78;27.84;101215.13;5044485;28;20035;-89
2022/12/17 15:37:09;;;;;;;9.00;3.83;;;;;;;13.82;27.82;101220.94;5023544;28;20107;-89
2022/12/17 15:39:35;;;;;;;7.50;4.25;;;;;;;13.84;28.00;101216.22;5027978;28;20056;-89
2022/12/17 15:44:47;;;;;;;6.90;4.28;;;;;;;13.81;27.78;101216.59;5046497;28;20339;-89
2022/12/17 15:47:13;;;;;;;6.32;3.83;;;;;;;13.82;28.01;101224.47;5028422;28;20385;-89
2022/12/17 15:49:39;;;;;;;6.95;4.43;;;;;;;13.82;27.91;101218.25;5025627;28;20475;-89
2022/12/17 15:52:04;;;;;;;6.95;4.50;;;;;;;13.83;28.06;101214.53;5015603;28;20033;-89
2022/12/17 15:54:30;;;;;;;6.90;4.40;;;;;;;13.81;27.90;101221.94;5025142;28;20025;-89
2022/12/17 15:56:57;;;;;;;7.78;4.22;;;;;;;13.77;28.06;101209.94;5039887;28;20028;-89
2022/12/17 15:59:25;;;;;;;7.65;4.32;;;;;;;13.77;28.03;101209.94;5012488;28;20052;-89
2022/12/17 16:01:51;;;;;;;8.15;4.43;;;;;;;13.84;28.08;101219.72;5009190;28;20099;-89
2022/12/17 16:04:16;;;;;;;6.90;4.47;;;;;;;13.81;28.04;101222.78;5032858;28;20436;-89
2022/12/17 16:06:42;;;;;;;7.32;4.30;;;;;;;13.79;27.92;101224.81;5045862;28;20089;-90
2022/12/17 16:09:08;;;;;;;6.90;4.35;;;;;;;13.79;27.70;101221.31;5034682;28;20029;-90
2022/12/17 16:11:33;;;;;;;7.30;4.10;;;;;;;13.81;28.15;101219.28;5018319;28;20368;-89
2022/12/17 16:13:59;;;;;;;7.60;4.32;;;;;;;13.78;27.93;101222.31;5034540;28;20055;-89
2022/12/17 16:16:25;;;;;;;8.63;4.78;;;;;;;13.76;28.07;101219.00;5061400;28;20059;-89
2022/12/17 16:18:50;;;;;;;8.20;4.32;;;;;;;13.75;27.87;101220.88;5045313;28;20170;-90
2022/12/17 16:21:16;;;;;;;6.35;4.25;;;;;;;13.78;28.26;101217.81;5020101;28;20036;-89
2022/12/17 16:23:42;;;;;;;7.90;4.70;;;;;;;13.80;28.22;101214.94;5040634;28;20032;-89
2022/12/17 16:26:07;;;;;;;6.03;3.75;;;;;;;13.77;28.31;101209.94;5038516;28;20029;-89
2022/12/17 16:28:34;;;;;;;7.43;4.18;;;;;;;13.77;28.23;101216.13;5034472;28;20063;-89
2022/12/17 16:31:07;;;;;;;7.32;4.30;;;;;;;13.78;27.86;101216.94;5046153;28;20104;-89
2022/12/17 16:33:37;;;;;;;7.43;4.18;;;;;;;13.79;28.44;101213.25;5034430;28;20044;-89
2022/12/17 16:36:04;;;;;;;7.57;4.28;;;;;;;13.81;28.16;101211.22;5019370;28;20060;-89
2022/12/17 16:38:29;;;;;;;8.65;4.60;;;;;;;13.76;28.38;101214.44;5038558;28;20437;-89
2022/12/17 16:40:56;;;;;;;8.40;5.07;;;;;;;13.73;28.09;101200.56;5020616;28;20120;-90
2022/12/17 16:43:22;;;;;;;6.63;4.30;;;;;;;13.79;27.87;101207.88;5012283;28;20041;-90
2022/12/17 16:45:48;;;;;;;7.32;4.32;;;;;;;13.80;28.61;101221.13;5009902;28;20033;-90
2022/12/17 16:48:16;;;;;;;9.20;4.10;;;;;;;13.80;28.08;101215.75;5041522;28;20128;-89
2022/12/17 16:50:42;;;;;;;9.07;4.78;;;;;;;13.75;28.15;101217.34;5036329;28;20044;-89
2022/12/17 16:53:07;;;;;;;7.80;4.88;;;;;;;13.70;28.09;101209.84;5024503;28;20159;-90
2022/12/17 16:55:39;;;;;;;7.45;4.00;;;;;;;13.70;28.34;101199.94;5014512;28;20057;-89
2022/12/17 16:58:04;;;;;;;6.75;3.97;;;;;;;13.74;28.20;101205.75;5019623;28;20029;-90
2022/12/17 17:00:30;;;;;;;8.23;4.55;;;;;;;13.73;28.43;101214.84;5036986;28;20500;-89
2022/12/17 17:02:56;;;;;;;6.97;4.25;;;;;;;13.68;28.13;101201.97;5019481;28;20576;-89
2022/12/17 17:05:22;;;;;;;7.88;4.45;;;;;;;13.70;28.30;101216.03;5036164;28;20510;-90
2022/12/17 17:07:51;;;;;;;6.63;4.30;;;;;;;13.77;28.38;101218.81;5044498;28;20052;-89
2022/12/17 17:10:17;;;;;;;7.53;4.43;;;;;;;13.76;28.66;101214.44;5015954;28;20060;-90
2022/12/17 17:12:42;;;;;;;7.30;4.35;;;;;;;13.74;28.72;101221.88;5028948;28;20439;-89
2022/12/17 17:15:09;;;;;;;8.85;4.97;;;;;;;13.65;28.04;101206.88;5047611;28;20033;-89
2022/12/17 17:17:34;;;;;;;8.05;4.82;;;;;;;13.73;28.06;101214.00;5029901;28;20055;-89
2022/12/17 17:20:04;;;;;;;7.45;4.70;;;;;;;13.67;28.49;101189.56;5036900;28;20118;-89
2022/12/17 17:22:30;;;;;;;6.57;4.15;;;;;;;13.74;28.46;101199.56;5045849;28;20032;-88
2022/12/17 17:24:55;;;;;;;8.48;4.50;;;;;;;13.71;28.33;101201.59;5020955;28;20082;-89
2022/12/17 17:27:21;;;;;;;9.30;4.78;;;;;;;13.67;28.05;101205.66;5021994;28;20474;-88
2022/12/17 17:29:47;;;;;;;7.47;4.05;;;;;;;13.65;28.29;101196.16;5029648;28;20053;-88
2022/12/17 17:32:12;;;;;;;9.25;4.63;;;;;;;13.67;28.55;101199.47;5030242;28;20051;-89
2022/12/17 17:34:38;;;;;;;8.52;4.53;;;;;;;13.67;28.42;101189.56;5023314;28;20074;-88
2022/12/17 17:37:04;;;;;;;7.72;4.55;;;;;;;13.63;28.21;101188.28;5035461;28;20111;-88
2022/12/17 17:39:33;;;;;;;8.48;4.90;;;;;;;13.65;28.25;101193.47;5031317;28;20162;-89
2022/12/17 17:42:10;;;;;;;7.80;4.75;;;;;;;13.67;28.46;101194.94;5035986;28;20045;-88
2022/12/17 17:44:37;;;;;;;6.90;4.43;;;;;;;13.65;28.74;101188.09;5019485;28;20089;-88
2022/12/17 17:47:02;;;;;;;6.10;4.03;;;;;;;13.65;28.56;101188.09;5058656;28;20021;-88
2022/12/17 17:49:28;;;;;;;7.35;4.82;;;;;;;13.62;28.50;101199.19;5020747;28;20091;-88
2022/12/17 17:51:54;;;;;;;7.72;4.82;;;;;;;13.65;28.22;101193.47;5026128;28;20036;-88
2022/12/17 17:54:19;;;;;;;8.65;4.65;;;;;;;13.67;28.12;101194.94;5020574;28;20745;-88
2022/12/17 17:57:05;;;;;;;7.63;4.35;;;;;;;13.66;28.53;101198.66;5020004;28;20039;-88
2022/12/17 17:59:31;;;;;;;9.05;4.60;;;;;;;13.59;28.55;101188.84;5026108;28;20489;-88
2022/12/17 18:01:57;;;;;;;10.57;5.63;;;;;;;13.63;28.07;101198.19;5015911;28;20511;-89
2022/12/17 18:04:23;;;;;;;8.85;5.25;;;;;;;13.62;28.33;101202.72;5019760;28;20032;-89
2022/12/17 18:06:57;;;;;;;7.32;4.50;;;;;;;13.57;28.36;101191.69;5015497;28;20032;-88
2022/12/17 18:09:23;;;;;;;6.57;4.22;;;;;;;13.56;28.75;101191.91;5015587;28;20537;-89
2022/12/17 18:11:48;;;;;;;8.52;4.70;;;;;;;13.59;28.63;101200.44;5019626;28;20177;-88
2022/12/17 18:14:14;;;;;;;8.40;4.68;;;;;;;13.50;28.31;101196.16;5045900;28;20040;-88
2022/12/17 18:16:46;;;;;;;7.82;4.70;;;;;;;13.51;28.30;101189.78;5015746;28;20451;-88
2022/12/17 18:19:20;;;;;;;7.15;4.30;;;;;;;13.65;28.70;101207.72;5027859;28;20124;-88
2022/12/17 18:21:45;;;;;;;7.07;4.40;;;;;;;13.55;28.70;101188.38;5028464;28;20028;-88
2022/12/17 18:24:20;;;;;;;5.45;3.83;;;;;;;13.61;28.72;101203.75;5023831;28;20059;-89
2022/12/17 18:26:46;;;;;;;8.00;4.43;;;;;;;13.55;28.36;101201.81;5017481;28;20580;-88
2022/12/17 18:29:14;;;;;;;8.15;4.63;;;;;;;13.57;28.67;101199.75;5022503;28;20481;-88
2022/12/17 18:31:40;;;;;;;6.50;3.90;;;;;;;13.60;28.82;101183.28;5019809;28;20072;-88
2022/12/17 18:34:06;;;;;;;7.03;4.28;;;;;;;13.62;29.00;101191.97;5035796;28;20496;-89
2022/12/17 18:36:34;;;;;;;6.95;4.10;;;;;;;13.58;28.23;101189.88;5031303;28;20507;-88
2022/12/17 18:39:26;;;;;;;8.07;4.30;;;;;;;13.56;28.75;101181.19;5034237;28;20029;-88
2022/12/17 18:44:37;;;;;;;7.00;4.20;;;;;;;13.59;28.87;101187.00;5035084;28;20420;-88
2022/12/17 18:47:03;;;;;;;7.38;4.10;;;;;;;13.59;28.61;101187.00;5012145;28;20361;-89
2022/12/17 18:49:28;;;;;;;6.95;4.10;;;;;;;13.59;28.50;101187.00;5015365;28;20490;-89
2022/12/17 18:51:54;;;;;;;7.63;4.28;;;;;;;13.57;28.54;101190.88;5047251;28;20028;-89
2022/12/17 18:54:24;;;;;;;7.25;4.30;;;;;;;13.60;28.74;101183.28;5033691;28;20029;-88
2022/12/17 18:56:50;;;;;;;8.05;4.63;;;;;;;13.58;28.79;101179.94;5026552;28;20032;-88
2022/12/17 18:59:19;;;;;;;7.72;4.32;;;;;;;13.58;28.86;101179.94;5060872;28;20425;-89
2022/12/17 19:01:44;;;;;;;6.68;4.22;;;;;;;13.57;28.51;101188.19;5031115;28;20037;-89
2022/12/17 19:04:11;;;;;;;7.40;4.28;;;;;;;13.56;28.63;101182.00;5046170;28;20021;-88
2022/12/17 19:06:37;;;;;;;7.95;4.55;;;;;;;13.60;28.64;101183.28;5033916;28;20094;-88
2022/12/17 19:09:19;;;;;;;7.65;4.35;;;;;;;13.51;28.74;101162.94;5059984;28;20287;-89
2022/12/17 19:11:45;;;;;;;8.75;4.30;;;;;;;13.52;28.55;101164.56;5026537;28;20028;-88
2022/12/17 19:14:11;;;;;;;7.65;4.22;;;;;;;13.55;28.83;101177.63;5058640;28;20050;-88
2022/12/17 19:16:36;;;;;;;7.38;4.18;;;;;;;13.58;28.51;101176.44;5051803;28;20029;-88
2022/12/17 19:19:02;;;;;;;6.18;4.30;;;;;;;13.60;28.79;101183.28;5035329;28;20128;-88
2022/12/17 19:21:28;;;;;;;6.90;4.20;;;;;;;13.58;28.81;101187.19;5027331;28;20028;-88
2022/12/17 19:23:56;;;;;;;7.32;4.35;;;;;;;13.55;28.94;101179.50;5030466;28;20036;-88
2022/12/17 19:26:21;;;;;;;6.35;3.65;;;;;;;13.52;28.59;101186.06;5029170;28;20385;-88
2022/12/17 19:28:52;;;;;;;7.22;4.03;;;;;;;13.56;28.82;101192.75;5034432;28;20542;-88
2022/12/17 19:31:18;;;;;;;6.88;4.07;;;;;;;13.58;28.83;101184.50;5026339;28;20033;-88
2022/12/17 19:33:44;;;;;;;6.68;3.80;;;;;;;13.58;28.87;101190.69;5048353;28;20066;-89
2022/12/17 19:36:12;;;;;;;6.20;3.97;;;;;;;13.56;28.73;101187.38;5035084;28;20032;-88
2022/12/17 19:38:37;;;;;;;5.78;3.72;;;;;;;13.53;28.77;101188.56;5034948;28;20043;-88
2022/12/17 19:41:08;;;;;;;6.45;3.70;;;;;;;13.59;28.81;101196.88;5036973;28;20046;-88
2022/12/17 19:43:34;;;;;;;6.28;3.95;;;;;;;13.59;29.27;101192.38;5027101;28;20103;-88
2022/12/17 19:46:06;;;;;;;6.45;4.00;;;;;;;13.58;29.11;101187.19;5045250;28;20343;-88
2022/12/17 19:48:33;;;;;;;7.50;4.22;;;;;;;13.55;28.98;101185.69;5029738;28;20349;-88
2022/12/17 19:50:58;;;;;;;4.95;3.03;;;;;;;13.55;28.74;101192.91;5026393;28;20017;-88
2022/12/17 19:53:26;;;;;;;7.57;3.60;;;;;;;13.55;28.95;101183.00;5038870;28;20066;-88
2022/12/17 19:55:55;;;;;;;5.88;3.42;;;;;;;13.56;28.81;101182.00;5033019;28;20089;-88
2022/12/17 19:58:24;;;;;;;5.55;3.40;;;;;;;13.60;29.08;101196.69;5041755;28;20029;-88
2022/12/17 20:00:52;;;;;;;6.72;3.85;;;;;;;13.59;28.55;101196.88;5031913;28;20079;-89
2022/12/17 20:03:18;;;;;;;6.90;3.90;;;;;;;13.54;28.51;101200.16;5016506;28;20029;-88
2022/12/17 20:05:44;;;;;;;5.68;3.83;;;;;;;13.60;28.79;101199.38;5019716;28;20097;-88
2022/12/17 20:08:10;;;;;;;5.80;3.60;;;;;;;13.60;29.01;101210.13;5037582;28;20515;-88
2022/12/17 20:10:36;;;;;;;7.75;4.40;;;;;;;13.56;29.07;101192.75;5036660;28;20146;-88
2022/12/17 20:13:02;;;;;;;8.25;4.38;;;;;;;13.57;28.64;101194.38;5029106;28;20111;-88
2022/12/17 20:15:28;;;;;;;6.82;3.90;;;;;;;13.57;28.65;101199.75;5016734;28;20541;-88
2022/12/17 20:17:54;;;;;;;4.75;3.53;;;;;;;13.56;28.71;101203.47;5028063;28;20036;-88
2022/12/17 20:20:22;;;;;;;5.30;3.53;;;;;;;13.57;28.99;101202.44;5030952;28;20060;-88
2022/12/17 20:22:52;;;;;;;6.32;3.83;;;;;;;13.58;28.98;101204.13;5024550;28;20028;-88
2022/12/17 20:25:17;;;;;;;6.60;3.88;;;;;;;13.53;28.88;101199.31;5021065;28;20032;-88
2022/12/17 20:27:43;;;;;;;6.18;3.53;;;;;;;13.53;28.71;101196.63;5014307;28;20038;-88
2022/12/17 20:30:09;;;;;;;6.78;3.58;;;;;;;13.58;28.70;101190.69;5030404;28;20048;-89
2022/12/17 20:32:36;;;;;;;6.95;4.15;;;;;;;13.57;29.18;101194.38;5018058;28;20044;-89
2022/12/17 20:35:02;;;;;;;7.63;4.20;;;;;;;13.60;28.95;101191.31;5012278;28;20035;-88
2022/12/17 20:37:27;;;;;;;5.85;3.72;;;;;;;13.55;28.74;101192.91;5019298;28;20029;-88
2022/12/17 20:39:53;;;;;;;6.38;3.42;;;;;;;13.51;28.89;101193.28;5041240;28;20055;-88
2022/12/17 20:42:19;;;;;;;8.55;3.90;;;;;;;13.55;28.71;101212.53;5034355;28;20028;-89
2022/12/17 20:44:45;;;;;;;5.72;3.70;;;;;;;13.57;28.98;101210.50;5051981;28;20035;-88
2022/12/17 20:47:10;;;;;;;4.63;3.35;;;;;;;13.56;28.90;101208.84;5015322;28;20111;-88
2022/12/17 20:49:36;;;;;;;6.07;3.72;;;;;;;13.52;29.25;101211.09;5039284;28;20645;-89
2022/12/17 20:52:02;;;;;;;5.15;3.65;;;;;;;13.51;28.68;101200.53;5031141;28;20033;-88
2022/12/17 20:54:27;;;;;;;5.03;3.25;;;;;;;13.52;28.58;101202.16;5012201;28;20140;-89
2022/12/17 20:56:55;;;;;;;5.78;3.47;;;;;;;13.53;28.97;101193.94;5034983;28;20039;-88
2022/12/17 20:59:21;;;;;;;4.78;3.10;;;;;;;13.55;29.25;101191.06;5028374;28;20037;-88
2022/12/17 21:01:47;;;;;;;6.63;3.80;;;;;;;13.53;28.91;101185.88;5038148;28;20171;-88
2022/12/17 21:04:13;;;;;;;4.63;3.22;;;;;;;13.48;28.74;101199.03;5037549;28;20035;-88
2022/12/17 21:06:43;;;;;;;6.93;3.95;;;;;;;13.51;28.97;101198.66;5033742;28;20063;-89
2022/12/17 21:09:10;;;;;;;7.18;3.35;;;;;;;13.52;29.09;101204.84;5007693;28;20126;-89
2022/12/17 21:11:36;;;;;;;5.55;3.40;;;;;;;13.46;29.15;101176.91;5033253;28;20158;-88
2022/12/17 21:14:03;;;;;;;5.78;3.53;;;;;;;13.48;29.01;101196.34;5027725;28;20029;-88
2022/12/17 21:16:29;;;;;;;5.93;3.70;;;;;;;13.45;28.87;101180.63;5026378;28;20012;-88
2022/12/17 21:18:55;;;;;;;6.13;3.55;;;;;;;13.45;29.06;101175.25;5017209;28;20360;-88
2022/12/17 21:21:23;;;;;;;5.32;3.38;;;;;;;13.48;29.22;101179.41;5040224;28;20024;-89
2022/12/17 21:23:49;;;;;;;5.75;3.10;;;;;;;13.50;29.17;101182.72;5048679;28;20040;-89
2022/12/17 21:26:20;;;;;;;5.13;3.30;;;;;;;13.51;28.85;101170.97;5029163;28;20035;-88
2022/12/17 21:28:47;;;;;;;6.47;3.80;;;;;;;13.46;28.87;101168.03;5035720;28;20029;-88
2022/12/17 21:31:20;;;;;;;7.05;3.72;;;;;;;13.44;28.92;101176.28;5044541;28;20249;-89
2022/12/17 21:33:46;;;;;;;5.15;3.50;;;;;;;13.44;29.27;101172.75;5043238;28;20115;-89
2022/12/17 21:36:15;;;;;;;4.47;2.92;;;;;;;13.47;29.02;101172.34;5030474;28;20024;-89
2022/12/17 21:38:41;;;;;;;5.35;3.35;;;;;;;13.47;29.02;101178.59;5031099;28;20184;-89
2022/12/17 21:41:11;;;;;;;6.45;3.83;;;;;;;13.43;29.03;101157.66;5011479;28;20119;-88
2022/12/17 21:43:38;;;;;;;4.93;3.25;;;;;;;13.41;28.98;101154.34;5035458;28;20028;-88
2022/12/17 21:46:04;;;;;;;4.60;3.20;;;;;;;13.40;29.03;101144.59;5008826;28;20024;-88
2022/12/17 21:48:32;;;;;;;6.40;3.55;;;;;;;13.43;28.88;101150.41;5014529;28;20930;-88
2022/12/17 21:50:58;;;;;;;5.65;3.38;;;;;;;13.40;29.18;101139.22;5030854;28;20033;-88
2022/12/17 21:53:24;;;;;;;6.28;3.63;;;;;;;13.43;29.17;101147.75;5044790;28;20063;-89
2022/12/17 21:56:05;;;;;;;5.68;3.60;;;;;;;13.39;28.99;101145.63;5014866;28;20065;-88
2022/12/17 21:58:34;;;;;;;5.75;3.58;;;;;;;13.43;29.20;101150.41;5050742;28;20032;-88
2022/12/17 22:01:13;;;;;;;6.15;3.42;;;;;;;13.43;29.02;101161.16;5008517;28;20035;-88
2022/12/17 22:03:39;;;;;;;8.25;4.43;;;;;;;13.37;28.89;101148.50;5033209;28;20064;-89
2022/12/17 22:06:07;;;;;;;6.07;3.72;;;;;;;13.32;28.86;101135.63;5030372;28;20067;-89
2022/12/17 22:08:32;;;;;;;5.93;3.65;;;;;;;13.38;28.98;101143.97;5058045;28;20108;-89
2022/12/17 22:10:58;;;;;;;5.10;3.40;;;;;;;13.40;29.28;101141.91;5032981;28;20343;-88
2022/12/17 22:16:08;;;;;;;6.45;3.90;;;;;;;13.36;29.32;101137.94;5047223;28;20159;-89
2022/12/17 22:18:33;;;;;;;6.03;3.90;;;;;;;13.32;29.17;101127.59;5015234;28;20481;-89
2022/12/17 22:21:02;;;;;;;5.82;3.75;;;;;;;13.28;29.21;101126.28;5013258;28;20031;-89
2022/12/17 22:23:28;;;;;;;6.30;3.65;;;;;;;13.38;29.11;101119.78;5024623;28;20060;-88
2022/12/17 22:25:53;;;;;;;6.05;3.70;;;;;;;13.38;29.15;101120.63;5017965;28;20537;-89
2022/12/17 22:28:19;;;;;;;6.78;3.90;;;;;;;13.37;29.41;101124.34;5028431;28;20033;-89
2022/12/17 22:33:28;;;;;;;6.18;3.70;;;;;;;13.27;29.44;101107.66;5044459;28;20547;-89
2022/12/17 22:35:57;;;;;;;6.93;3.72;;;;;;;13.33;29.31;101129.25;5019698;28;20052;-89
2022/12/17 22:38:23;;;;;;;6.07;3.90;;;;;;;13.24;29.26;101108.03;5042479;28;20020;-90
2022/12/17 22:40:55;;;;;;;7.20;3.85;;;;;;;13.36;29.21;101117.28;5042491;28;20025;-89
2022/12/17 22:43:31;;;;;;;5.43;3.28;;;;;;;13.25;29.04;101105.16;5033995;28;20374;-88
2022/12/17 22:46:03;;;;;;;5.97;3.80;;;;;;;13.27;28.97;101108.50;5043145;28;20477;-89
2022/12/17 22:48:30;;;;;;;6.78;3.80;;;;;;;13.25;29.18;101104.34;5018192;28;20396;-88
2022/12/17 22:50:55;;;;;;;6.57;3.80;;;;;;;13.29;29.50;101113.69;5033016;28;20362;-88
2022/12/17 22:53:21;;;;;;;6.22;3.67;;;;;;;13.30;29.30;101113.50;5026579;28;20458;-88
2022/12/17 22:55:47;;;;;;;6.15;3.60;;;;;;;13.29;29.41;101117.19;5042815;28;20426;-89
2022/12/17 22:58:16;;;;;;;7.07;3.72;;;;;;;13.28;29.29;101115.53;5044487;28;20056;-87
2022/12/17 23:00:43;;;;;;;6.03;3.33;;;;;;;13.26;29.33;101112.22;5040040;28;20476;-88
2022/12/17 23:03:09;;;;;;;5.43;3.30;;;;;;;13.25;29.48;101105.16;5041053;28;20306;-88
2022/12/17 23:05:34;;;;;;;7.20;4.00;;;;;;;13.25;29.50;101099.78;5041099;28;20029;-88
2022/12/17 23:08:00;;;;;;;5.82;3.70;;;;;;;13.27;29.25;101102.28;5036698;28;20028;-88
2022/12/17 23:10:32;;;;;;;5.90;3.70;;;;;;;13.25;29.15;101099.78;5042069;28;20029;-88
2022/12/17 23:12:57;;;;;;;7.68;4.18;;;;;;;13.23;29.48;101088.41;5055950;28;20024;-87
2022/12/17 23:15:25;;;;;;;6.35;3.53;;;;;;;13.27;29.25;101092.38;5043377;28;20434;-88
2022/12/17 23:17:52;;;;;;;7.00;3.65;;;;;;;13.28;29.49;101099.44;5052871;28;20328;-88
2022/12/17 23:20:17;;;;;;;7.18;4.05;;;;;;;13.23;29.46;101096.47;5035441;28;20033;-88
2022/12/17 23:22:43;;;;;;;5.88;3.50;;;;;;;13.27;29.39;101097.75;5043463;28;20067;-88
2022/12/17 23:25:11;;;;;;;5.68;3.63;;;;;;;13.25;29.70;101105.16;5041597;28;20501;-88
2022/12/17 23:27:37;;;;;;;5.28;3.53;;;;;;;13.23;29.73;101098.31;5027133;28;20048;-88
2022/12/17 23:30:06;;;;;;;5.80;3.60;;;;;;;13.26;29.41;101090.75;5043091;28;20324;-88
2022/12/17 23:32:31;;;;;;;5.00;3.35;;;;;;;13.27;29.62;101111.19;5048544;28;20037;-88
2022/12/17 23:34:57;;;;;;;5.22;3.30;;;;;;;13.27;29.49;101113.84;5020450;28;20028;-88
2022/12/17 23:37:23;;;;;;;5.68;3.40;;;;;;;13.24;29.77;101111.53;5043868;28;20386;-88
2022/12/17 23:39:48;;;;;;;5.88;3.63;;;;;;;13.21;29.49;101098.53;5039679;28;20040;-88
2022/12/17 23:42:14;;;;;;;5.93;3.45;;;;;;;13.22;29.56;101084.06;5047623;28;20047;-88
2022/12/17 23:44:40;;;;;;;4.78;3.45;;;;;;;13.29;29.66;101090.34;5031937;28;20374;-88
2022/12/17 23:47:05;;;;;;;5.80;3.17;;;;;;;13.28;29.49;101096.75;5051973;28;20225;-88
2022/12/17 23:49:31;;;;;;;5.65;3.33;;;;;;;13.25;29.62;101093.59;5019347;28;20051;-88
2022/12/17 23:51:56;;;;;;;6.40;3.67;;;;;;;13.24;29.42;101081.19;5034950;28;20127;-88
2022/12/17 23:54:23;;;;;;;6.13;3.33;;;;;;;13.23;29.57;101084.88;5019574;28;20056;-88
2022/12/17 23:56:51;;;;;;;5.78;3.30;;;;;;;13.23;29.73;101085.75;5043459;28;20029;-88
2022/12/17 23:59:17;;;;;;;6.18;3.53;;;;;;;13.26;29.41;101080.00;5021054;28;20235;-88
